createdAt,value
2022-10-01T00:02:32.289Z,12.73
2022-10-01T00:05:34.819Z,12.50
2022-10-01T00:08:37.988Z,11.77
2022-10-01T00:11:41.856Z,11.50
2022-10-01T00:14:44.684Z,10.90
2022-10-01T00:17:47.296Z,11.02
2022-10-01T00:20:49.619Z,10.75
2022-10-01T00:23:56.219Z,10.43
2022-10-01T00:26:58.546Z,11.73
2022-10-01T00:30:00.937Z,11.82
2022-10-01T00:33:03.793Z,13.23
2022-10-01T00:36:07.116Z,15.68
2022-10-01T00:39:12.808Z,18.00
2022-10-01T00:42:22.736Z,17.23
2022-10-01T00:45:25.172Z,17.65
2022-10-01T00:48:28.643Z,17.27
2022-10-01T00:51:35.154Z,16.27
2022-10-01T00:54:39.843Z,15.40
2022-10-01T00:57:42.653Z,14.73
2022-10-01T01:00:45.496Z,13.82
2022-10-01T01:03:48.030Z,13.60
2022-10-01T01:06:53.924Z,13.85
2022-10-01T01:09:56.404Z,14.13
2022-10-01T01:13:04.660Z,14.18
2022-10-01T01:16:18.941Z,13.05
2022-10-01T01:19:24.311Z,12.52
2022-10-01T01:22:28.269Z,12.55
2022-10-01T01:25:44.978Z,14.17
2022-10-01T01:28:50.656Z,13.40
2022-10-01T01:31:55.222Z,14.27
2022-10-01T01:35:01.240Z,13.07
2022-10-01T01:38:06.691Z,12.73
2022-10-01T01:41:10.789Z,12.90
2022-10-01T01:44:13.165Z,14.63
2022-10-01T01:47:15.541Z,15.50
2022-10-01T01:50:19.230Z,14.73
2022-10-01T01:53:21.703Z,15.98
2022-10-01T01:56:24.192Z,16.63
2022-10-01T01:59:27.429Z,16.08
2022-10-01T02:02:33.447Z,15.95
2022-10-01T02:05:51.182Z,16.02
2022-10-01T02:09:01.229Z,15.90
2022-10-01T02:12:11.414Z,14.37
2022-10-01T02:15:20.541Z,16.02
2022-10-01T02:18:31.998Z,16.30
2022-10-01T02:22:00.769Z,16.67
2022-10-01T02:25:04.980Z,15.13
2022-10-01T02:28:10.138Z,14.50
2022-10-01T02:31:14.285Z,14.13
2022-10-01T02:34:20.249Z,15.85
2022-10-01T02:37:25.119Z,15.60
2022-10-01T02:40:28.758Z,16.63
2022-10-01T02:43:35.403Z,17.20
2022-10-01T02:46:46.157Z,17.20
2022-10-01T02:49:49.239Z,16.25
2022-10-01T02:53:11.879Z,14.40
2022-10-01T02:56:48.360Z,15.63
2022-10-01T02:59:52.275Z,14.40
2022-10-01T03:02:54.771Z,13.73
2022-10-01T03:05:57.125Z,15.15
2022-10-01T03:09:00.808Z,14.82
2022-10-01T03:12:03.260Z,14.35
2022-10-01T03:15:05.743Z,14.43
2022-10-01T03:18:08.417Z,14.50
2022-10-01T03:21:10.822Z,14.25
2022-10-01T03:24:13.139Z,14.27
2022-10-01T03:27:15.834Z,13.98
2022-10-01T03:30:18.135Z,13.77
2022-10-01T03:33:20.568Z,13.20
2022-10-01T03:36:22.853Z,11.75
2022-10-01T03:39:25.606Z,14.13
2022-10-01T03:42:28.238Z,13.68
2022-10-01T03:45:30.777Z,14.30
2022-10-01T03:48:33.002Z,13.73
2022-10-01T03:51:37.569Z,13.88
2022-10-01T03:54:40.098Z,13.38
2022-10-01T03:57:42.193Z,13.43
2022-10-01T04:00:45.217Z,13.27
2022-10-01T04:03:47.387Z,14.20
2022-10-01T04:06:49.513Z,15.25
2022-10-01T04:09:51.624Z,13.75
2022-10-01T04:12:54.964Z,14.60
2022-10-01T04:15:57.434Z,14.47
2022-10-01T04:18:59.890Z,14.18
2022-10-01T04:22:02.204Z,14.05
2022-10-01T04:25:04.527Z,13.50
2022-10-01T04:28:07.633Z,13.18
2022-10-01T04:31:25.089Z,13.73
2022-10-01T04:34:47.307Z,13.02
2022-10-01T04:37:56.129Z,14.35
2022-10-01T04:40:58.584Z,12.20
2022-10-01T04:44:00.896Z,13.30
2022-10-01T04:47:03.199Z,12.97
2022-10-01T04:50:05.803Z,13.13
2022-10-01T04:53:08.009Z,12.57
2022-10-01T04:56:10.314Z,13.15
2022-10-01T04:59:12.451Z,12.55
2022-10-01T05:02:14.766Z,12.80
2022-10-01T05:05:18.302Z,12.95
2022-10-01T05:08:21.030Z,13.43
2022-10-01T05:11:23.447Z,12.27
2022-10-01T05:14:26.802Z,10.48
2022-10-01T05:17:34.508Z,10.93
2022-10-01T05:20:37.858Z,11.55
2022-10-01T05:23:40.024Z,11.70
2022-10-01T05:26:42.206Z,11.40
2022-10-01T05:29:44.873Z,12.85
2022-10-01T05:32:54.018Z,12.60
2022-10-01T05:35:57.387Z,12.88
2022-10-01T05:38:59.597Z,13.82
2022-10-01T05:42:06.521Z,13.63
2022-10-01T05:45:10.131Z,13.38
2022-10-01T05:48:12.915Z,13.57
2022-10-01T05:51:15.276Z,13.45
2022-10-01T05:54:19.665Z,14.35
2022-10-01T05:57:21.938Z,13.60
2022-10-01T06:00:24.577Z,15.52
2022-10-01T06:03:29.714Z,13.57
2022-10-01T06:06:31.869Z,14.85
2022-10-01T06:09:34.022Z,13.95
2022-10-01T06:12:36.677Z,14.40
2022-10-01T06:15:39.317Z,13.70
2022-10-01T06:18:42.091Z,14.17
2022-10-01T06:21:44.297Z,13.05
2022-10-01T06:24:46.754Z,13.45
2022-10-01T06:27:58.079Z,13.98
2022-10-01T06:31:03.697Z,14.00
2022-10-01T06:34:05.892Z,14.43
2022-10-01T06:37:08.067Z,13.10
2022-10-01T06:40:10.604Z,13.70
2022-10-01T06:43:12.933Z,14.35
2022-10-01T06:46:15.190Z,14.43
2022-10-01T06:49:20.548Z,13.00
2022-10-01T06:52:41.468Z,13.05
2022-10-01T06:55:44.253Z,11.73
2022-10-01T06:58:46.712Z,10.98
2022-10-01T07:01:55.520Z,10.90
2022-10-01T07:04:59.403Z,11.03
2022-10-01T07:08:01.936Z,10.85
2022-10-01T07:11:05.075Z,11.52
2022-10-01T07:14:08.191Z,10.82
2022-10-01T07:17:10.334Z,11.60
2022-10-01T07:20:13.143Z,12.67
2022-10-01T07:23:16.004Z,12.90
2022-10-01T07:26:18.382Z,12.40
2022-10-01T07:29:20.610Z,12.00
2022-10-01T07:32:23.061Z,11.88
2022-10-01T07:35:25.456Z,10.83
2022-10-01T07:38:27.602Z,11.57
2022-10-01T07:41:29.747Z,10.77
2022-10-01T07:44:32.214Z,12.30
2022-10-01T07:47:34.363Z,11.93
2022-10-01T07:50:36.790Z,11.57
2022-10-01T07:53:39.197Z,11.98
2022-10-01T07:56:42.620Z,12.68
2022-10-01T07:59:44.903Z,11.85
2022-10-01T08:02:48.524Z,10.65
2022-10-01T08:05:52.996Z,10.50
2022-10-01T08:08:55.485Z,11.45
2022-10-01T08:11:57.722Z,10.57
2022-10-01T08:14:59.939Z,11.38
2022-10-01T08:18:03.257Z,12.88
2022-10-01T08:21:05.737Z,12.23
2022-10-01T08:24:08.568Z,12.23
2022-10-01T08:27:11.069Z,11.18
2022-10-01T08:30:13.289Z,11.55
2022-10-01T08:33:15.547Z,11.02
2022-10-01T08:36:18.053Z,10.20
2022-10-01T08:39:20.685Z,11.35
2022-10-01T08:42:33.382Z,11.80
2022-10-01T08:45:35.577Z,10.30
2022-10-01T08:48:47.402Z,10.68
2022-10-01T08:51:55.597Z,10.70
2022-10-01T08:55:00.221Z,11.18
2022-10-01T08:58:04.120Z,10.05
2022-10-01T09:01:06.794Z,11.07
2022-10-01T09:04:09.092Z,10.98
2022-10-01T09:07:36.353Z,11.93
2022-10-01T09:10:46.817Z,11.80
2022-10-01T09:13:57.840Z,11.65
2022-10-01T09:17:00.468Z,11.60
2022-10-01T09:20:11.516Z,11.50
2022-10-01T09:23:15.369Z,10.07
2022-10-01T09:26:18.860Z,11.00
2022-10-01T09:29:34.499Z,9.77
2022-10-01T09:32:43.334Z,10.55
2022-10-01T09:35:48.496Z,10.70
2022-10-01T09:39:09.038Z,9.83
2022-10-01T09:42:11.301Z,9.68
2022-10-01T09:45:14.805Z,8.80
2022-10-01T09:48:23.187Z,9.10
2022-10-01T09:51:29.224Z,8.77
2022-10-01T09:54:39.128Z,8.93
2022-10-01T09:57:43.737Z,8.40
2022-10-01T10:00:46.017Z,8.15
2022-10-01T10:03:55.463Z,8.13
2022-10-01T10:07:02.582Z,9.02
2022-10-01T10:10:09.022Z,9.57
2022-10-01T10:13:11.488Z,9.30
2022-10-01T10:16:33.046Z,9.18
2022-10-01T10:19:37.298Z,9.38
2022-10-01T10:22:39.469Z,9.13
2022-10-01T10:25:42.105Z,8.50
2022-10-01T10:28:46.210Z,8.07
2022-10-01T10:31:51.123Z,8.63
2022-10-01T10:35:00.853Z,8.07
2022-10-01T10:38:05.138Z,7.25
2022-10-01T10:41:15.996Z,7.60
2022-10-01T10:44:22.139Z,6.40
2022-10-01T10:47:24.479Z,6.45
2022-10-01T10:50:29.193Z,6.80
2022-10-01T10:53:40.672Z,5.88
2022-10-01T10:56:51.061Z,6.70
2022-10-01T11:00:12.807Z,6.32
2022-10-01T11:03:16.720Z,6.63
2022-10-01T11:06:19.294Z,6.90
2022-10-01T11:09:23.204Z,6.90
2022-10-01T11:12:38.198Z,7.40
2022-10-01T11:15:58.828Z,6.50
2022-10-01T11:19:07.854Z,7.32
2022-10-01T11:22:28.635Z,6.85
2022-10-01T11:25:36.908Z,6.40
2022-10-01T11:28:51.230Z,7.67
2022-10-01T11:32:07.567Z,8.27
2022-10-01T11:35:15.396Z,7.32
2022-10-01T11:38:37.870Z,7.53
2022-10-01T11:41:41.729Z,7.15
2022-10-01T11:44:46.325Z,8.23
2022-10-01T11:48:00.391Z,8.27
2022-10-01T11:51:05.895Z,8.98
2022-10-01T11:54:11.697Z,8.77
2022-10-01T11:57:33.043Z,8.45
2022-10-01T12:00:35.950Z,8.60
2022-10-01T12:03:50.837Z,8.77
2022-10-01T12:06:57.733Z,8.90
2022-10-01T12:10:19.022Z,8.50
2022-10-01T12:13:25.000Z,8.23
2022-10-01T12:16:45.502Z,8.93
2022-10-01T12:19:50.766Z,9.45
2022-10-01T12:22:54.052Z,9.05
2022-10-01T12:25:59.507Z,8.88
2022-10-01T12:29:05.099Z,8.60
2022-10-01T12:32:07.804Z,9.77
2022-10-01T12:35:18.903Z,8.73
2022-10-01T12:38:24.127Z,8.75
2022-10-01T12:41:32.990Z,9.43
2022-10-01T12:44:41.357Z,9.50
2022-10-01T12:47:52.701Z,9.60
2022-10-01T12:50:54.947Z,9.63
2022-10-01T12:54:04.885Z,10.18
2022-10-01T12:57:17.281Z,10.18
2022-10-01T13:00:20.917Z,9.32
2022-10-01T13:03:36.883Z,10.77
2022-10-01T13:06:42.131Z,10.40
2022-10-01T13:09:50.708Z,11.15
2022-10-01T13:12:58.837Z,9.55
2022-10-01T13:16:07.366Z,9.70
2022-10-01T13:19:27.722Z,9.43
2022-10-01T13:22:53.137Z,9.18
2022-10-01T13:26:00.896Z,9.27
2022-10-01T13:29:11.494Z,9.50
2022-10-01T13:32:33.711Z,8.90
2022-10-01T13:35:39.335Z,9.00
2022-10-01T13:38:43.269Z,8.43
2022-10-01T13:41:45.643Z,7.15
2022-10-01T13:44:52.945Z,6.10
2022-10-01T13:48:10.351Z,5.32
2022-10-01T13:51:13.434Z,5.40
2022-10-01T13:54:22.536Z,5.70
2022-10-01T13:57:34.583Z,5.40
2022-10-01T14:00:47.392Z,5.28
2022-10-01T14:03:49.846Z,5.00
2022-10-01T14:06:57.299Z,5.27
2022-10-01T14:10:00.894Z,4.90
2022-10-01T14:13:22.366Z,5.30
2022-10-01T14:16:25.299Z,6.32
2022-10-01T14:19:27.730Z,6.63
2022-10-01T14:22:49.485Z,6.77
2022-10-01T14:25:56.378Z,6.20
2022-10-01T14:28:58.611Z,7.03
2022-10-01T14:32:08.157Z,7.38
2022-10-01T14:35:29.371Z,6.60
2022-10-01T14:38:32.051Z,4.70
2022-10-01T14:41:34.996Z,5.10
2022-10-01T14:44:40.081Z,5.00
2022-10-01T14:47:42.282Z,5.28
2022-10-01T14:50:49.380Z,5.35
2022-10-01T14:53:52.407Z,5.53
2022-10-01T14:56:55.282Z,7.35
2022-10-01T14:59:58.803Z,8.13
2022-10-01T15:03:04.011Z,9.38
2022-10-01T15:06:14.016Z,9.85
2022-10-01T15:09:18.998Z,9.33
2022-10-01T15:12:22.332Z,9.52
2022-10-01T15:15:33.620Z,9.82
2022-10-01T15:18:36.866Z,9.18
2022-10-01T15:21:58.687Z,9.73
2022-10-01T15:25:01.392Z,9.97
2022-10-01T15:28:13.240Z,10.55
2022-10-01T15:31:16.749Z,10.93
2022-10-01T15:34:20.083Z,12.00
2022-10-01T15:37:24.649Z,13.02
2022-10-01T15:40:28.810Z,12.90
2022-10-01T15:43:37.647Z,12.50
2022-10-01T15:46:40.078Z,12.05
2022-10-01T15:50:00.578Z,11.10
2022-10-01T15:53:10.351Z,11.77
2022-10-01T15:56:14.925Z,11.47
2022-10-01T15:59:19.000Z,11.13
2022-10-01T16:02:25.571Z,11.63
2022-10-01T16:05:45.216Z,11.15
2022-10-01T16:08:58.637Z,10.73
2022-10-01T16:12:09.936Z,9.47
2022-10-01T16:15:30.822Z,10.05
2022-10-01T16:18:34.788Z,9.07
2022-10-01T16:21:40.501Z,8.57
2022-10-01T16:24:46.867Z,7.03
2022-10-01T16:27:50.421Z,6.13
2022-10-01T16:30:53.015Z,5.88
2022-10-01T16:33:55.190Z,6.00
2022-10-01T16:36:57.931Z,6.35
2022-10-01T16:40:00.139Z,5.78
2022-10-01T16:43:02.869Z,5.30
2022-10-01T16:46:05.378Z,5.70
2022-10-01T16:49:14.673Z,4.85
2022-10-01T16:52:16.932Z,4.85
2022-10-01T16:55:27.431Z,4.20
2022-10-01T16:58:29.809Z,3.43
2022-10-01T17:01:32.009Z,3.30
2022-10-01T17:04:34.387Z,3.40
2022-10-01T17:07:36.857Z,2.92
2022-10-01T17:10:41.701Z,3.28
2022-10-01T17:13:43.909Z,3.07
2022-10-01T17:16:48.345Z,3.53
2022-10-01T17:19:50.651Z,3.72
2022-10-01T17:22:52.845Z,3.47
2022-10-01T17:25:54.983Z,3.58
2022-10-01T17:28:57.936Z,3.70
2022-10-01T17:32:00.268Z,3.50
2022-10-01T17:35:02.803Z,3.60
2022-10-01T17:38:04.977Z,3.20
2022-10-01T17:41:07.698Z,3.05
2022-10-01T17:44:09.912Z,3.13
2022-10-01T17:47:12.246Z,3.10
2022-10-01T17:50:15.285Z,2.80
2022-10-01T17:53:17.417Z,2.95
2022-10-01T17:56:19.581Z,2.92
2022-10-01T17:59:22.309Z,2.90
2022-10-01T18:02:41.071Z,3.10
2022-10-01T18:05:44.989Z,3.10
2022-10-01T18:08:56.040Z,3.63
2022-10-01T18:11:58.852Z,3.40
2022-10-01T18:15:01.564Z,3.33
2022-10-01T18:21:26.454Z,3.63
2022-10-01T18:24:28.916Z,3.30
2022-10-01T18:27:31.068Z,3.22
2022-10-01T18:30:33.355Z,3.60
2022-10-01T18:33:36.633Z,3.60
2022-10-01T18:36:54.194Z,4.07
2022-10-01T18:40:22.857Z,4.07
2022-10-01T18:43:26.167Z,4.18
2022-10-01T18:46:41.601Z,4.20
2022-10-01T18:49:52.837Z,4.15
2022-10-01T18:53:01.054Z,4.28
2022-10-01T18:56:11.012Z,5.13
2022-10-01T18:59:38.639Z,5.07
2022-10-01T19:02:51.982Z,5.33
2022-10-01T19:06:04.940Z,5.70
2022-10-01T19:09:07.121Z,5.78
2022-10-01T19:12:21.433Z,6.10
2022-10-01T19:15:39.901Z,6.30
2022-10-01T19:18:48.299Z,7.03
2022-10-01T19:21:59.406Z,7.05
2022-10-01T19:25:01.596Z,6.95
2022-10-01T19:28:22.511Z,7.18
2022-10-01T19:31:29.931Z,8.07
2022-10-01T19:34:50.911Z,8.00
2022-10-01T19:38:05.287Z,8.88
2022-10-01T19:41:07.444Z,8.73
2022-10-01T19:44:18.471Z,9.13
2022-10-01T19:47:34.602Z,8.30
2022-10-01T19:50:41.349Z,8.43
2022-10-01T19:53:46.765Z,8.68
2022-10-01T19:56:54.272Z,8.73
2022-10-01T20:00:04.741Z,8.75
2022-10-01T20:03:18.062Z,8.48
2022-10-01T20:06:28.604Z,8.93
2022-10-01T20:09:43.135Z,8.32
2022-10-01T20:12:55.769Z,7.50
2022-10-01T20:16:00.964Z,7.78
2022-10-01T20:19:19.835Z,7.13
2022-10-01T20:22:22.164Z,8.17
2022-10-01T20:25:33.070Z,7.80
2022-10-01T20:28:36.354Z,8.10
2022-10-01T20:31:39.595Z,9.07
2022-10-01T20:35:05.873Z,7.80
2022-10-01T20:38:28.290Z,7.30
2022-10-01T20:41:33.555Z,6.55
2022-10-01T20:44:37.381Z,6.35
2022-10-01T20:47:44.388Z,5.68
2022-10-01T20:50:51.038Z,5.60
2022-10-01T20:53:54.904Z,6.40
2022-10-01T20:56:57.301Z,5.55
2022-10-01T21:00:08.401Z,5.53
2022-10-01T21:03:19.654Z,5.40
2022-10-01T21:06:26.862Z,5.70
2022-10-01T21:09:31.815Z,5.73
2022-10-01T21:12:37.588Z,4.63
2022-10-01T21:15:53.400Z,4.93
2022-10-01T21:19:22.050Z,4.18
2022-10-01T21:22:46.389Z,4.00
2022-10-01T21:26:07.133Z,3.70
2022-10-01T21:29:19.357Z,3.30
2022-10-01T21:32:28.500Z,3.53
2022-10-01T21:35:49.678Z,3.65
2022-10-01T21:38:55.635Z,3.88
2022-10-01T21:42:12.044Z,3.47
2022-10-01T21:45:20.799Z,3.47
2022-10-01T21:48:26.107Z,3.60
2022-10-01T21:51:37.400Z,3.10
2022-10-01T21:54:45.720Z,3.00
2022-10-01T21:57:48.333Z,2.97
2022-10-01T22:00:59.841Z,2.80
2022-10-01T22:04:17.385Z,3.05
2022-10-01T22:07:19.570Z,2.83
2022-10-01T22:10:31.934Z,2.90
2022-10-01T22:13:35.912Z,2.60
2022-10-01T22:16:40.759Z,2.60
2022-10-01T22:19:46.422Z,2.80
2022-10-01T22:22:50.324Z,2.65
2022-10-01T22:26:01.200Z,2.47
2022-10-01T22:29:06.122Z,2.40
2022-10-01T22:32:09.292Z,2.40
2022-10-01T22:35:17.180Z,2.40
2022-10-01T22:38:38.139Z,2.50
2022-10-01T22:41:47.829Z,2.50
2022-10-01T22:44:50.153Z,2.63
2022-10-01T22:47:55.432Z,2.40
2022-10-01T22:51:03.728Z,2.38
2022-10-01T22:54:24.663Z,2.35
2022-10-01T22:57:43.098Z,2.17
2022-10-01T23:00:52.981Z,2.00
2022-10-01T23:04:14.052Z,1.80
2022-10-01T23:07:25.235Z,1.83
2022-10-01T23:10:36.245Z,1.58
2022-10-01T23:13:58.703Z,1.98
2022-10-01T23:17:00.965Z,1.80
2022-10-01T23:20:22.060Z,1.77
2022-10-01T23:23:24.218Z,1.90
2022-10-01T23:26:26.352Z,1.70
2022-10-01T23:29:47.338Z,1.70
2022-10-01T23:33:21.914Z,1.80
2022-10-01T23:36:42.953Z,1.50
2022-10-01T23:39:54.275Z,1.60
2022-10-01T23:43:03.473Z,1.48
2022-10-01T23:46:14.557Z,1.63
2022-10-01T23:49:17.872Z,1.63
2022-10-01T23:52:29.492Z,1.50
2022-10-01T23:56:02.514Z,1.52
2022-10-01T23:59:17.913Z,1.52
